Pagrindinis puslapis
METAR-TAF:

METAR-TAF

Oro uostai :

Gurdaka, Egiptas

platuma: 27-09N, ilguma: 033-43E, Aukštis: 16 m

Dabartinis oras

Ataskaita buvo paskelbta 1 valandą ir 16 minutes, ne 01:00 UTC
Vėjas 2 kt iš Vakarų/Pietvakarių
Temperatūra 18°C
Drėgmė 49%
Slėgis 1014 hPa
Matomumas 10 km arba daugiau
nėra debesų žemiau 1500 m ir nėra kamuolinių lietaus debesų

METAR: HEGN 220100Z 24002KT CAVOK 18/07 Q1014 NOSIG

Laikas: 04:16 (02:16 UTC)

Prognozė

Ataskaita buvo paskelbta 3 valandos ir 16 minutes, ne 23:00 UTC
Prognozė galioja nuo 22 metu 00 UTC su 23 metu 06 UTC
Vėjas 10 kt iš Vakarų
Matomumas 10 km arba daugiau
nėra debesų žemiau 1500 m ir nėra kamuolinių lietaus debesų

TAF: HEGN 212300Z 2200/2306 28010KT CAVOK

Orai ataskaitas ir orų prognozės (METAR, TAF).

turimą stotys yra geltonos ir raudonos taškus žemėlapyje.

Perkelti pele per norėdami pamatyti stoties vardą.

Tada spustelėkite, norėdami matyti oro stebėjimo ir prognozės.

Norėdami pakeisti žemėlapį: spustelėkite ant žalios mygtukų su juodo kryžiaus žemyn,; žalią mygtuką su brūkšneliu, jei norite nutolinti; arba žalių rodyklių gretimoms žemėlapius.


METAR-TAF: